AirNav   Air Wisconsin pilot careers
 
 305 users online  

22KS Via Christi Regional Medical Center-St Francis Campus Heliport
Wichita, Kansas, USA

GOING TO WICHITA?


FAA INFORMATION EFFECTIVE 12 SEPTEMBER 2019

Location

FAA Identifier: 22KS
Lat/Long: 37-41-54.1400N 097-19-55.0400W
37-41.902333N 097-19.917333W
37.6983722,-97.3319556
(estimated)
Elevation: 1382 ft. / 421 m (estimated)
Variation: 07E (1985)
Time zone: UTC -5 (UTC -6 during Standard Time)
Zip code: 67214

Heliport Operations

Heliport use: Private use, MEDICAL.
Activation date: 12/1982
Control tower: no
ARTCC: KANSAS CITY CENTER
FSS: WICHITA FLIGHT SERVICE STATION
Attendance: CONTINUOUS
Wind indicator: lighted
Segmented circle: yes
Lights: FOR PERIMETER LGTS CALL 316-268-5092.

Heliport Communications

WX AWOS-3PT at BEC (6 nm E): 119.45 (316-515-7116)
WX ASOS at ICT (6 nm SW): PHONE 316-945-8022
WX ASOS at AAO (6 nm NE): 134.025 (316-636-2541)
WX AWOS-3 at 1K1 (11 nm NE): 118.3 (316-530-6004)
WX AWOS-3PT at 3AU (12 nm E): 124.175 (316-733-6696)

Nearby radio navigation aids

VOR radial/distance  VOR name  Freq  Var
ICTr096/12.3WICHITA VORTAC113.8007E
HUTr118/33.7HUTCHINSON VOR/DME116.8004E

 
NDB name  Hdg/Dist  Freq  Var  ID
PICHE035/9.333204EIC .. -.-.
NEWTON181/22.128106EEWK . .-- -.-

Heliport Services

Runway Information

Helipad H1

Dimensions: 63 x 63 ft. / 19 x 19 m
Surface: concrete
ROOFTOP.
Runway edge lights: PERI
Latitude: 37-41.902333N
Longitude: 097-19.917333W
Elevation: 1382.0 ft.
Traffic pattern: leftleft
Markings: basic, in good condition

Heliport Ownership and Management from official FAA records

Ownership: Privately-owned
Owner: VIA CHRISTI RGL MED CTR ST F CAMPUS
929 N ST FRANCIS
WICHITA, KS 67214
Phone 316-268-5000
Manager: DAN GONDA
929 N ST FRANCIS
WICHITA, KS 67214
Phone (316) 268-6948

Additional Remarks

A52-H1 77' BLDG-ML 270' NORTH; TOWERS EAST & WEST.
FOR CD CTC WICHITA APCH AT 316-350-1520.

Instrument Procedures

There are no published instrument procedures at 22KS.

Some nearby airports with instrument procedures:

KCEA - Cessna Aircraft Field Airport (5 nm SE)
KIAB - Mc Connell Air Force Base (5 nm SE)
KBEC - Beech Factory Airport (6 nm E)
KICT - Wichita Dwight D Eisenhower National Airport (6 nm SW)
KAAO - Colonel James Jabara Airport (6 nm NE)
1K1 - Lloyd Stearman Field Airport (11 nm NE)
3AU - Augusta Municipal Airport (12 nm E)
 
Loc | Ops | Rwys | IFR | FBO | Links
Com | Nav | Svcs | Stats | Notes

Kansas City Aviation Department
 
Area around 22KS (Via Christi Regional Medical Center-St Francis Campus Heliport)
 
Road maps at: MapQuest Bing Google
 
Aerial photo
No photo
 
Sectional chart

 
Airport distance calculator
Flying to Via Christi Regional Medical Center-St Francis Campus Heliport? Find the distance to fly.

From to 22KS

Sunrise and sunset
Times for 18-Sep-2019
 Local
(UTC-5)
 Zulu
(UTC)
Morning civil twilight06:4811:48
Sunrise07:1512:15
Sunset19:3200:32
Evening civil twilight19:5800:58

Current date and time
Zulu (UTC)  18-Sep-2019 08:24:02
Local (UTC-5)  18-Sep-2019 03:24:02
 
METAR
KBEC 
6nm E 
180755Z AUTO 15007KT 10SM CLR 22/20 A2995 RMK AO2 T02200195
KICT 
6nm SW 
180753Z 16007KT 10SM SCT250 23/20 A2994 RMK AO2 SLP122 T02330200
KIAB 
6nm SE 
180756Z AUTO 12010KT 10SM CLR 23/19 A2995 RMK AO2 SLP129 T02320187 $
KAAO 
6nm NE 
180754Z AUTO 16008KT 10SM CLR 23/20 A2995 RMK AO2 SLP126 T02280200
K1K1 
11nm NE 
180755Z AUTO 18011KT 10SM CLR 22/20 A2996 RMK AO2 T02150195
K3AU 
12nm E 
180755Z AUTO 14004KT 10SM CLR 21/20 A2996 RMK AO2
TAF
KICT 
6nm SW 
180522Z 1806/1906 16008KT P6SM SCT250 FM181400 18015G22KT P6SM FEW060 FM190100 16008KT P6SM FEW100
KIAB 
6nm SE 
180200Z 1802/1908 15006KT 9999 FEW028 QNH2992INS BECMG 1817/1818 19015G20KT 9999 FEW120 QNH2993INS BECMG 1821/1822 15009KT 9999 FEW100 QNH2992INS TX31/1820Z TN25/1808Z
NOTAMs
Click for the latest NOTAMs
NOTAMs are issued by the DoD/FAA and will open in a separate window not controlled by AirNav.

 

 
 

Would you like to see your business listed on this page?

 If your business provides an interesting product or service to pilots, flight crews, aircraft, or users of the Via Christi Regional Medical Center-St Francis Campus Heliport, you should consider listing it here.  To start the listing process, click on the button below
 
Add a business
 

Other Pages about Via Christi Regional Medical Center-St Francis Campus Heliport

Update a link
 
Copyright © AirNav, LLC. All rights reserved. Privacy Policy  Contact